createdAt,value
2018-07-24T00:01:29.508Z,3.40
2018-07-24T00:03:57.754Z,3.13
2018-07-24T00:06:25.898Z,3.40
2018-07-24T00:08:54.044Z,3.50
2018-07-24T00:11:22.146Z,3.33
2018-07-24T00:13:50.278Z,3.00
2018-07-24T00:16:18.680Z,2.97
2018-07-24T00:18:46.799Z,3.33
2018-07-24T00:21:14.942Z,3.30
2018-07-24T00:23:43.114Z,3.27
2018-07-24T00:26:11.255Z,3.60
2018-07-24T00:28:39.466Z,3.30
2018-07-24T00:31:07.880Z,3.37
2018-07-24T00:33:36.018Z,3.53
2018-07-24T00:36:04.158Z,3.40
2018-07-24T00:38:32.302Z,3.60
2018-07-24T00:41:00.438Z,3.57
2018-07-24T00:43:28.545Z,3.47
2018-07-24T00:45:56.702Z,3.37
2018-07-24T00:48:24.862Z,3.73
2018-07-24T00:50:52.961Z,3.77
2018-07-24T00:53:21.112Z,3.40
2018-07-24T00:55:49.214Z,3.50
2018-07-24T00:58:17.367Z,3.57
2018-07-24T01:00:45.587Z,3.70
2018-07-24T01:03:13.723Z,3.57
2018-07-24T01:05:42.027Z,3.83
2018-07-24T01:08:11.125Z,3.10
2018-07-24T01:10:39.294Z,3.40
2018-07-24T01:13:07.536Z,3.47
2018-07-24T01:15:35.674Z,3.20
2018-07-24T01:18:03.995Z,3.03
2018-07-24T01:20:32.588Z,3.53
2018-07-24T01:23:01.406Z,3.53
2018-07-24T01:25:29.859Z,3.27
2018-07-24T01:27:58.348Z,3.30
2018-07-24T01:30:26.484Z,3.20
2018-07-24T01:32:54.841Z,3.60
2018-07-24T01:35:22.990Z,3.40
2018-07-24T01:37:51.189Z,3.20
2018-07-24T01:40:19.299Z,3.60
2018-07-24T01:42:47.544Z,3.40
2018-07-24T01:45:15.686Z,3.43
2018-07-24T01:47:43.835Z,3.40
2018-07-24T01:50:11.933Z,3.30
2018-07-24T01:52:40.138Z,3.40
2018-07-24T01:55:08.347Z,3.30
2018-07-24T01:57:36.737Z,2.97
2018-07-24T02:00:05.171Z,3.17
2018-07-24T02:02:33.279Z,3.40
2018-07-24T02:05:01.389Z,3.17
2018-07-24T02:07:29.553Z,3.20
2018-07-24T02:09:57.699Z,3.10
2018-07-24T02:12:25.814Z,3.50
2018-07-24T02:14:53.936Z,3.00
2018-07-24T02:17:22.047Z,3.10
2018-07-24T02:19:50.159Z,3.30
2018-07-24T02:22:18.270Z,3.17
2018-07-24T02:24:46.471Z,3.63
2018-07-24T02:27:14.581Z,3.10
2018-07-24T02:29:42.719Z,3.20
2018-07-24T02:32:10.872Z,3.50
2018-07-24T02:34:39.208Z,3.57
2018-07-24T02:37:07.429Z,2.80
2018-07-24T02:39:35.660Z,3.47
2018-07-24T02:42:03.772Z,3.10
2018-07-24T02:44:31.942Z,3.30
2018-07-24T02:47:00.299Z,3.27
2018-07-24T02:49:28.421Z,3.40
2018-07-24T02:51:56.593Z,3.03
2018-07-24T02:54:24.728Z,3.17
2018-07-24T02:56:52.901Z,3.00
2018-07-24T02:59:21.377Z,3.00
2018-07-24T03:01:49.477Z,3.07
2018-07-24T03:04:17.738Z,3.00
2018-07-24T03:06:45.876Z,3.17
2018-07-24T03:09:13.981Z,2.97
2018-07-24T03:11:42.167Z,3.10
2018-07-24T03:14:10.312Z,2.87
2018-07-24T03:16:38.495Z,2.97
2018-07-24T03:19:06.797Z,3.07
2018-07-24T03:21:35.021Z,2.90
2018-07-24T03:24:03.150Z,3.03
2018-07-24T03:26:31.333Z,3.33
2018-07-24T03:28:59.473Z,3.60
2018-07-24T03:31:27.676Z,2.97
2018-07-24T03:33:55.798Z,3.00
2018-07-24T03:36:24.155Z,2.97
2018-07-24T03:38:52.252Z,3.30
2018-07-24T03:41:20.448Z,2.97
2018-07-24T03:43:48.568Z,2.87
2018-07-24T03:46:16.665Z,3.03
2018-07-24T03:48:44.829Z,3.13
2018-07-24T03:51:12.990Z,3.47
2018-07-24T03:53:41.126Z,3.20
2018-07-24T03:56:09.438Z,3.30
2018-07-24T03:58:37.618Z,2.73
2018-07-24T04:01:05.710Z,3.00
2018-07-24T04:03:33.858Z,3.00
2018-07-24T04:06:02.058Z,2.93
2018-07-24T04:08:30.142Z,3.10
2018-07-24T04:10:58.248Z,3.10
2018-07-24T04:13:26.359Z,2.87
2018-07-24T04:15:54.462Z,3.20
2018-07-24T04:18:22.574Z,3.30
2018-07-24T04:20:50.697Z,3.10
2018-07-24T04:23:18.894Z,3.23
2018-07-24T04:25:47.043Z,3.00
2018-07-24T04:28:15.178Z,3.33
2018-07-24T04:30:43.386Z,2.80
2018-07-24T04:33:11.511Z,3.10
2018-07-24T04:35:39.765Z,3.17
2018-07-24T04:38:08.291Z,3.10
2018-07-24T04:40:36.407Z,3.40
2018-07-24T04:43:04.559Z,3.00
2018-07-24T04:45:32.659Z,3.17
2018-07-24T04:48:00.839Z,3.50
2018-07-24T04:50:29.030Z,3.00
2018-07-24T04:52:57.393Z,3.30
2018-07-24T04:55:25.498Z,3.20
2018-07-24T04:57:53.640Z,3.20
2018-07-24T05:00:21.738Z,2.80
2018-07-24T05:02:49.851Z,2.97
2018-07-24T05:05:17.988Z,3.50
2018-07-24T05:07:46.074Z,3.10
2018-07-24T05:10:14.223Z,3.10
2018-07-24T05:12:42.411Z,3.20
2018-07-24T05:15:13.726Z,3.00
2018-07-24T05:17:41.862Z,3.00
2018-07-24T05:20:09.990Z,3.17
2018-07-24T05:22:38.167Z,3.17
2018-07-24T05:25:06.380Z,2.93
2018-07-24T05:27:34.555Z,3.20
2018-07-24T05:30:02.719Z,3.13
2018-07-24T05:32:30.855Z,3.10
2018-07-24T05:34:58.967Z,3.40
2018-07-24T05:37:27.109Z,3.13
2018-07-24T05:39:58.576Z,3.13
2018-07-24T05:42:26.795Z,3.30
2018-07-24T05:44:54.912Z,3.97
2018-07-24T05:47:23.203Z,3.47
2018-07-24T05:49:51.301Z,3.70
2018-07-24T05:52:19.367Z,4.67
2018-07-24T05:54:47.425Z,6.00
2018-07-24T05:57:15.497Z,5.03
2018-07-24T05:59:43.668Z,3.73
2018-07-24T06:02:12.264Z,3.40
2018-07-24T06:04:40.393Z,4.20
2018-07-24T06:07:08.533Z,5.17
2018-07-24T06:09:36.603Z,4.27
2018-07-24T06:12:04.703Z,3.90
2018-07-24T06:14:32.778Z,3.57
2018-07-24T06:17:00.869Z,5.67
2018-07-24T06:19:28.915Z,4.10
2018-07-24T06:21:57.060Z,3.83
2018-07-24T06:24:25.162Z,4.30
2018-07-24T06:26:53.223Z,3.70
2018-07-24T06:29:21.712Z,4.90
2018-07-24T06:31:49.771Z,4.10
2018-07-24T06:34:17.845Z,4.10
2018-07-24T06:36:45.887Z,3.70
2018-07-24T06:39:14.248Z,4.23
2018-07-24T06:41:42.860Z,3.77
2018-07-24T06:44:12.248Z,4.03
2018-07-24T06:46:40.289Z,4.60
2018-07-24T06:49:08.721Z,4.17
2018-07-24T06:51:36.824Z,4.07
2018-07-24T06:54:05.135Z,4.80
2018-07-24T06:56:33.261Z,4.60
2018-07-24T06:59:01.627Z,4.20
2018-07-24T07:01:29.928Z,4.40
2018-07-24T07:03:57.997Z,5.63
2018-07-24T07:06:26.645Z,4.67
2018-07-24T07:09:00.276Z,5.27
2018-07-24T07:11:28.331Z,4.97
2018-07-24T07:13:56.364Z,4.47
2018-07-24T07:16:24.422Z,4.70
2018-07-24T07:18:52.484Z,4.53
2018-07-24T07:21:20.533Z,4.43
2018-07-24T07:23:48.608Z,4.80
2018-07-24T07:26:16.698Z,4.70
2018-07-24T07:28:44.738Z,5.03
2018-07-24T07:31:12.864Z,4.33
2018-07-24T07:33:41.072Z,4.77
2018-07-24T07:36:09.235Z,5.50
2018-07-24T07:38:37.393Z,5.10
2018-07-24T07:41:05.763Z,4.73
2018-07-24T07:43:34.043Z,5.57
2018-07-24T07:46:02.177Z,5.37
2018-07-24T07:48:30.289Z,5.40
2018-07-24T07:50:58.383Z,7.03
2018-07-24T07:53:26.519Z,6.57
2018-07-24T07:55:54.624Z,4.97
2018-07-24T07:58:22.782Z,5.30
2018-07-24T08:00:50.908Z,5.10
2018-07-24T08:03:19.022Z,5.27
2018-07-24T08:05:47.147Z,4.93
2018-07-24T08:08:15.317Z,5.33
2018-07-24T08:10:46.843Z,5.63
2018-07-24T08:13:15.055Z,5.63
2018-07-24T08:15:43.193Z,6.93
2018-07-24T08:18:11.312Z,5.03
2018-07-24T08:20:39.487Z,5.77
2018-07-24T08:23:07.600Z,5.50
2018-07-24T08:25:35.913Z,5.90
2018-07-24T08:28:04.119Z,5.50
2018-07-24T08:30:32.243Z,5.50
2018-07-24T08:33:00.367Z,4.97
2018-07-24T08:35:28.470Z,5.20
2018-07-24T08:37:56.614Z,5.60
2018-07-24T08:40:24.721Z,5.20
2018-07-24T08:42:52.824Z,5.30
2018-07-24T08:45:21.281Z,5.20
2018-07-24T08:47:49.388Z,5.13
2018-07-24T08:50:17.586Z,5.77
2018-07-24T08:52:45.788Z,5.83
2018-07-24T08:55:14.206Z,5.80
2018-07-24T08:57:42.083Z,5.40
2018-07-24T09:00:10.260Z,5.13
2018-07-24T09:02:38.362Z,5.70
2018-07-24T09:05:06.512Z,6.00
2018-07-24T09:07:34.718Z,5.13
2018-07-24T09:10:02.959Z,5.07
2018-07-24T09:12:31.118Z,5.50
2018-07-24T09:14:59.327Z,5.90
2018-07-24T09:17:27.561Z,5.60
2018-07-24T09:19:55.715Z,4.83
2018-07-24T09:22:23.973Z,5.17
2018-07-24T09:24:52.108Z,5.50
2018-07-24T09:27:20.251Z,5.27
2018-07-24T09:29:48.458Z,5.63
2018-07-24T09:32:16.571Z,5.00
2018-07-24T09:34:44.775Z,4.73
2018-07-24T09:37:12.943Z,5.13
2018-07-24T09:39:41.052Z,4.80
2018-07-24T09:42:09.253Z,4.90
2018-07-24T09:44:37.427Z,4.70
2018-07-24T09:47:05.718Z,5.63
2018-07-24T09:49:33.839Z,5.07
2018-07-24T09:52:02.181Z,5.13
2018-07-24T09:54:30.302Z,5.70
2018-07-24T09:56:58.486Z,5.63
2018-07-24T09:59:26.687Z,5.43
2018-07-24T10:01:54.763Z,5.10
2018-07-24T10:04:22.874Z,5.43
2018-07-24T10:06:51.030Z,5.70
2018-07-24T10:09:19.149Z,4.80
2018-07-24T10:11:47.247Z,5.27
2018-07-24T10:14:15.369Z,5.47
2018-07-24T10:16:43.490Z,5.10
2018-07-24T10:19:11.599Z,5.03
2018-07-24T10:21:39.784Z,5.50
2018-07-24T10:24:07.891Z,5.10
2018-07-24T10:26:36.023Z,5.00
2018-07-24T10:29:04.162Z,5.00
2018-07-24T10:31:32.468Z,4.93
2018-07-24T10:34:00.578Z,5.63
2018-07-24T10:36:28.874Z,5.27
2018-07-24T10:38:56.975Z,5.03
2018-07-24T10:41:25.077Z,4.67
2018-07-24T10:43:53.203Z,5.03
2018-07-24T10:46:21.340Z,5.00
2018-07-24T10:48:49.643Z,5.40
2018-07-24T10:51:17.776Z,5.57
2018-07-24T10:53:46.077Z,5.60
2018-07-24T10:56:14.237Z,5.27
2018-07-24T10:58:42.363Z,5.30
2018-07-24T11:01:10.481Z,5.73
2018-07-24T11:03:38.689Z,5.10
2018-07-24T11:06:06.827Z,5.63
2018-07-24T11:08:34.936Z,5.20
2018-07-24T11:11:03.100Z,5.40
2018-07-24T11:13:31.204Z,5.40
2018-07-24T11:15:59.321Z,4.97
2018-07-24T11:18:27.437Z,5.30
2018-07-24T11:20:55.566Z,6.93
2018-07-24T11:23:23.680Z,5.30
2018-07-24T11:25:51.866Z,5.27
2018-07-24T11:28:20.038Z,6.97
2018-07-24T11:30:48.142Z,5.20
2018-07-24T11:33:16.243Z,4.43
2018-07-24T11:35:44.459Z,4.43
2018-07-24T11:38:12.561Z,4.97
2018-07-24T11:40:40.662Z,4.37
2018-07-24T11:43:08.842Z,4.53
2018-07-24T11:45:37.294Z,4.90
2018-07-24T11:48:05.461Z,4.77
2018-07-24T11:50:33.872Z,5.10
2018-07-24T11:53:02.000Z,4.70
2018-07-24T11:55:30.140Z,4.60
2018-07-24T11:57:58.415Z,5.63
2018-07-24T12:00:26.563Z,6.60
2018-07-24T12:02:54.742Z,5.70
2018-07-24T12:05:22.990Z,5.20
2018-07-24T12:07:51.214Z,4.80
2018-07-24T12:10:19.298Z,5.03
2018-07-24T12:12:47.438Z,6.23
2018-07-24T12:15:15.614Z,5.30
2018-07-24T12:17:43.718Z,5.30
2018-07-24T12:20:11.883Z,5.47
2018-07-24T12:22:40.020Z,5.20
2018-07-24T12:25:08.119Z,5.63
2018-07-24T12:27:36.335Z,5.07
2018-07-24T12:30:04.673Z,5.00
2018-07-24T12:32:32.798Z,4.60
2018-07-24T12:35:00.978Z,5.00
2018-07-24T12:37:29.131Z,4.80
2018-07-24T12:39:57.228Z,4.67
2018-07-24T12:42:25.380Z,4.60
2018-07-24T12:44:53.539Z,5.67
2018-07-24T12:47:21.698Z,5.17
2018-07-24T12:49:49.840Z,5.30
2018-07-24T12:52:21.297Z,4.43
2018-07-24T12:54:49.374Z,4.97
2018-07-24T12:57:17.492Z,5.00
2018-07-24T12:59:45.762Z,4.70
2018-07-24T13:02:13.878Z,6.47
2018-07-24T13:04:42.082Z,5.57
2018-07-24T13:07:10.229Z,5.07
2018-07-24T13:09:38.325Z,4.63
2018-07-24T13:12:06.468Z,4.47
2018-07-24T13:14:34.627Z,4.87
2018-07-24T13:17:02.745Z,4.53
2018-07-24T13:19:31.096Z,4.87
2018-07-24T13:21:59.267Z,5.00
2018-07-24T13:24:27.366Z,5.03
2018-07-24T13:26:55.505Z,4.83
2018-07-24T13:29:23.731Z,6.47
2018-07-24T13:31:51.965Z,10.00
2018-07-24T13:34:19.987Z,9.83
2018-07-24T13:36:48.083Z,7.20
2018-07-24T13:39:16.210Z,6.47
2018-07-24T13:41:44.287Z,5.17
2018-07-24T13:44:12.403Z,6.40
2018-07-24T13:46:40.492Z,7.30
2018-07-24T13:49:08.611Z,6.47
2018-07-24T13:51:36.809Z,6.27
2018-07-24T13:54:05.239Z,6.90
2018-07-24T13:56:33.420Z,4.97
2018-07-24T13:59:01.761Z,4.90
2018-07-24T14:01:30.881Z,5.13
2018-07-24T14:03:59.042Z,5.43
2018-07-24T14:06:27.323Z,6.60
2018-07-24T14:08:55.464Z,6.50
2018-07-24T14:11:23.677Z,5.70
2018-07-24T14:13:51.790Z,6.97
2018-07-24T14:16:19.882Z,5.80
2018-07-24T14:18:48.070Z,5.80
2018-07-24T14:21:16.267Z,4.83
2018-07-24T14:23:44.536Z,6.50
2018-07-24T14:26:12.736Z,5.20
2018-07-24T14:28:40.952Z,5.30
2018-07-24T14:31:09.092Z,4.83
2018-07-24T14:33:37.274Z,5.23
2018-07-24T14:36:05.392Z,5.00
2018-07-24T14:38:33.573Z,4.87
2018-07-24T14:41:01.674Z,5.33
2018-07-24T14:43:29.886Z,5.37
2018-07-24T14:45:58.071Z,4.97
2018-07-24T14:48:26.225Z,5.37
2018-07-24T14:50:54.325Z,5.13
2018-07-24T14:53:22.494Z,5.20
2018-07-24T14:55:50.653Z,4.90
2018-07-24T14:58:18.708Z,5.27
2018-07-24T15:00:46.892Z,5.23
2018-07-24T15:03:14.961Z,5.00
2018-07-24T15:05:43.097Z,6.57
2018-07-24T15:08:12.092Z,5.33
2018-07-24T15:10:40.164Z,5.67
2018-07-24T15:13:08.227Z,5.20
2018-07-24T15:15:36.477Z,5.03
2018-07-24T15:18:04.559Z,5.67
2018-07-24T15:20:32.617Z,7.10
2018-07-24T15:23:00.747Z,5.43
2018-07-24T15:25:28.827Z,5.23
2018-07-24T15:27:56.915Z,4.87
2018-07-24T15:30:25.037Z,5.03
2018-07-24T15:32:53.089Z,5.33
2018-07-24T15:35:21.176Z,5.93
2018-07-24T15:37:49.228Z,5.33
2018-07-24T15:40:17.271Z,4.90
2018-07-24T15:42:45.358Z,5.17
2018-07-24T15:45:13.423Z,5.17
2018-07-24T15:47:41.532Z,5.20
2018-07-24T15:50:09.591Z,4.90
2018-07-24T15:52:37.655Z,5.20
2018-07-24T15:55:05.712Z,5.30
2018-07-24T15:57:34.293Z,5.00
2018-07-24T16:00:02.328Z,5.10
2018-07-24T16:02:30.468Z,4.63
2018-07-24T16:04:58.524Z,5.10
2018-07-24T16:07:26.912Z,5.93
2018-07-24T16:09:54.998Z,4.67
2018-07-24T16:12:23.210Z,5.10
2018-07-24T16:14:51.287Z,5.30
2018-07-24T16:17:19.357Z,4.83
2018-07-24T16:19:47.505Z,5.00
2018-07-24T16:22:15.904Z,5.20
2018-07-24T16:24:43.974Z,4.87
2018-07-24T16:27:12.151Z,5.83
2018-07-24T16:29:43.806Z,4.67
2018-07-24T16:32:11.999Z,4.67
2018-07-24T16:34:40.041Z,5.60
2018-07-24T16:37:08.161Z,4.63
2018-07-24T16:39:36.213Z,4.87
2018-07-24T16:42:04.276Z,5.53
2018-07-24T16:44:32.332Z,5.50
2018-07-24T16:47:00.415Z,5.17
2018-07-24T16:49:28.571Z,5.30
2018-07-24T16:51:56.674Z,5.57
2018-07-24T16:54:24.972Z,5.00
2018-07-24T16:56:53.047Z,5.00
2018-07-24T16:59:21.258Z,5.70
2018-07-24T17:01:49.447Z,5.63
2018-07-24T17:04:17.571Z,5.17
2018-07-24T17:06:45.720Z,5.17
2018-07-24T17:09:13.963Z,5.23
2018-07-24T17:11:42.237Z,5.57
2018-07-24T17:14:10.474Z,5.03
2018-07-24T17:16:38.714Z,5.90
2018-07-24T17:19:06.908Z,5.20
2018-07-24T17:21:35.082Z,5.33
2018-07-24T17:24:03.280Z,5.33
2018-07-24T17:26:31.825Z,4.40
2018-07-24T17:29:00.213Z,5.03
2018-07-24T17:31:28.384Z,4.43
2018-07-24T17:33:56.677Z,4.77
2018-07-24T17:36:24.916Z,5.23
2018-07-24T17:38:53.109Z,5.07
2018-07-24T17:41:21.260Z,5.10
2018-07-24T17:43:49.373Z,4.80
2018-07-24T17:46:17.543Z,5.87
2018-07-24T17:48:45.712Z,5.50
2018-07-24T17:51:13.887Z,4.80
2018-07-24T17:53:42.131Z,4.07
2018-07-24T17:56:10.236Z,4.63
2018-07-24T17:58:38.350Z,5.03
2018-07-24T18:01:06.755Z,4.80
2018-07-24T18:03:34.861Z,4.80
2018-07-24T18:06:02.968Z,4.63
2018-07-24T18:08:31.113Z,4.17
2018-07-24T18:10:59.283Z,4.30
2018-07-24T18:13:27.391Z,4.20
2018-07-24T18:15:55.535Z,4.90
2018-07-24T18:18:23.817Z,6.03
2018-07-24T18:20:51.918Z,5.07
2018-07-24T18:23:20.443Z,6.87
2018-07-24T18:25:48.542Z,4.43
2018-07-24T18:28:16.642Z,4.40
2018-07-24T18:30:44.774Z,4.40
2018-07-24T18:33:12.882Z,4.53
2018-07-24T18:35:41.057Z,4.10
2018-07-24T18:38:09.170Z,6.67
2018-07-24T18:40:37.419Z,6.33
2018-07-24T18:43:05.694Z,3.73
2018-07-24T18:45:33.805Z,4.40
2018-07-24T18:48:01.979Z,4.23
2018-07-24T18:50:30.106Z,4.17
2018-07-24T18:52:58.293Z,3.97
2018-07-24T18:55:26.394Z,4.50
2018-07-24T18:57:54.534Z,4.37
2018-07-24T19:00:22.675Z,4.47
2018-07-24T19:02:54.706Z,4.30
2018-07-24T19:05:22.828Z,4.50
2018-07-24T19:07:51.051Z,4.57
2018-07-24T19:10:19.159Z,4.30
2018-07-24T19:12:47.330Z,3.77
2018-07-24T19:15:15.481Z,4.10
2018-07-24T19:17:43.579Z,3.70
2018-07-24T19:20:11.748Z,4.90
2018-07-24T19:22:39.877Z,4.47
2018-07-24T19:25:07.972Z,4.10
2018-07-24T19:27:36.155Z,4.00
2018-07-24T19:30:04.835Z,4.70
2018-07-24T19:32:32.998Z,4.20
2018-07-24T19:35:01.153Z,3.83
2018-07-24T19:37:29.406Z,3.93
2018-07-24T19:39:57.551Z,4.20
2018-07-24T19:42:25.752Z,4.30
2018-07-24T19:44:54.016Z,4.20
2018-07-24T19:47:22.211Z,4.33
2018-07-24T19:49:50.392Z,3.90
2018-07-24T19:52:18.527Z,4.13
2018-07-24T19:54:46.840Z,4.30
2018-07-24T19:57:14.987Z,4.07
2018-07-24T19:59:43.283Z,4.83
2018-07-24T20:02:11.610Z,6.23
2018-07-24T20:04:43.254Z,3.83
2018-07-24T20:07:11.383Z,4.83
2018-07-24T20:09:39.501Z,4.23
2018-07-24T20:12:07.723Z,3.87
2018-07-24T20:14:35.850Z,4.90
2018-07-24T20:17:03.996Z,4.07
2018-07-24T20:19:32.372Z,4.50
2018-07-24T20:22:00.511Z,4.50
2018-07-24T20:24:28.675Z,3.93
2018-07-24T20:26:56.819Z,3.80
2018-07-24T20:29:25.068Z,4.40
2018-07-24T20:31:53.209Z,4.23
2018-07-24T20:34:21.354Z,3.93
2018-07-24T20:36:50.334Z,3.97
2018-07-24T20:39:18.506Z,3.80
2018-07-24T20:41:46.689Z,3.60
2018-07-24T20:44:14.851Z,3.67
2018-07-24T20:46:42.961Z,3.53
2018-07-24T20:49:11.111Z,3.60
2018-07-24T20:51:39.424Z,3.77
2018-07-24T20:54:07.689Z,4.67
2018-07-24T20:56:35.937Z,3.80
2018-07-24T20:59:03.970Z,4.33
2018-07-24T21:01:32.074Z,3.83
2018-07-24T21:04:00.185Z,3.50
2018-07-24T21:06:28.461Z,5.17
2018-07-24T21:08:56.627Z,3.60
2018-07-24T21:11:24.866Z,3.67
2018-07-24T21:13:52.976Z,3.80
2018-07-24T21:16:21.183Z,3.73
2018-07-24T21:18:50.594Z,3.27
2018-07-24T21:21:18.693Z,3.90
2018-07-24T21:23:46.816Z,3.60
2018-07-24T21:27:18.035Z,3.43
2018-07-24T21:29:46.251Z,3.57
2018-07-24T21:32:14.411Z,3.23
2018-07-24T21:34:42.602Z,3.50
2018-07-24T21:37:10.769Z,3.37
2018-07-24T21:39:38.896Z,3.27
2018-07-24T21:42:07.171Z,3.70
2018-07-24T21:44:35.352Z,4.33
2018-07-24T21:47:03.531Z,3.70
2018-07-24T21:49:31.689Z,3.27
2018-07-24T21:51:59.825Z,3.13
2018-07-24T21:54:27.987Z,3.43
2018-07-24T21:56:56.145Z,3.10
2018-07-24T21:59:24.244Z,3.20
2018-07-24T22:01:52.383Z,3.60
2018-07-24T22:04:20.593Z,3.40
2018-07-24T22:06:48.943Z,3.23
2018-07-24T22:09:17.049Z,3.17
2018-07-24T22:11:45.227Z,3.17
2018-07-24T22:14:13.335Z,3.37
2018-07-24T22:16:41.451Z,3.40
2018-07-24T22:19:09.665Z,3.40
2018-07-24T22:21:37.766Z,3.13
2018-07-24T22:24:05.883Z,3.77
2018-07-24T22:26:34.099Z,3.47
2018-07-24T22:29:02.200Z,3.57
2018-07-24T22:31:30.301Z,3.07
2018-07-24T22:33:58.519Z,3.43
2018-07-24T22:36:26.645Z,3.47
2018-07-24T22:38:54.746Z,3.30
2018-07-24T22:41:22.890Z,3.50
2018-07-24T22:43:51.001Z,3.20
2018-07-24T22:46:19.102Z,3.70
2018-07-24T22:48:47.251Z,2.97
2018-07-24T22:51:15.361Z,3.07
2018-07-24T22:53:43.503Z,3.50
2018-07-24T22:56:11.627Z,3.27
2018-07-24T22:58:39.872Z,3.50
2018-07-24T23:01:07.966Z,3.67
2018-07-24T23:03:36.106Z,3.40
2018-07-24T23:06:04.206Z,3.17
2018-07-24T23:08:32.445Z,3.30
2018-07-24T23:11:00.554Z,3.70
2018-07-24T23:13:28.652Z,3.47
2018-07-24T23:15:56.805Z,3.60
2018-07-24T23:18:24.946Z,3.40
2018-07-24T23:20:53.053Z,3.43
2018-07-24T23:23:21.202Z,3.20
2018-07-24T23:25:49.319Z,2.90
2018-07-24T23:28:17.488Z,3.13
2018-07-24T23:30:45.718Z,3.47
2018-07-24T23:33:13.863Z,3.00
2018-07-24T23:35:42.433Z,3.00
2018-07-24T23:38:10.539Z,3.07
2018-07-24T23:40:38.694Z,2.97
2018-07-24T23:43:06.791Z,2.90
2018-07-24T23:45:34.972Z,3.37
2018-07-24T23:48:03.078Z,2.97
2018-07-24T23:50:31.246Z,3.33
2018-07-24T23:52:59.383Z,3.20
2018-07-24T23:55:27.528Z,3.20
2018-07-24T23:57:55.668Z,3.07
